Terminal Aerodrome Forecast
Issued by NWS

Home | Current Version | Previous Version | Graphics & Text | Print | Product List | Glossary On
Versions: 1 2 3 4 5 6 7 8 9 10 11 12 13 14 15 16
000
FTUS43 KIWX 261100
TAFSBN
TAF
KSBN 261129Z 2612/2712 22004KT P6SM SCT040
     FM261400 25009KT P6SM VCTS SCT035CB BKN200
     FM262000 32008KT P6SM SCT040=

USA.gov is the U.S. government's official web portal to all federal, state and local government web resources and services.